Time;durP1;ratioP1;P1;durP2;ratioP2;P2;SDS_P1;SDS_P2;PMS_P1;PMS_P2;Temp;Humidity;BMP_temperature;BMP_pressure;BME280_temperature;BME280_humidity;BME280_pressure;Samples;Min_cycle;Max_cycle;Signal;HPM_P1;HPM_P2
2023/02/27 00:02:06;;;;;;;3.83;1.37;;;-0.10;98.00;;;;;;5074863;28;20479;-70
2023/02/27 00:04:34;;;;;;;1.40;1.27;;;0.00;98.00;;;;;;5073370;28;20999;-70
2023/02/27 00:07:01;;;;;;;1.87;1.60;;;-0.10;98.00;;;;;;5074535;28;20491;-69
2023/02/27 00:09:28;;;;;;;1.20;1.20;;;-0.10;98.00;;;;;;5074674;28;20790;-69
2023/02/27 00:11:56;;;;;;;1.10;1.00;;;-0.10;98.00;;;;;;5074516;28;20456;-69
2023/02/27 00:14:23;;;;;;;1.40;1.30;;;-0.10;98.00;;;;;;5074616;28;20455;-69
2023/02/27 00:16:50;;;;;;;1.20;1.10;;;-0.10;98.00;;;;;;5074675;28;20464;-69
2023/02/27 00:19:17;;;;;;;1.40;1.40;;;-0.20;98.00;;;;;;5074572;28;20461;-69
2023/02/27 00:21:44;;;;;;;1.27;1.10;;;-0.20;98.00;;;;;;5074324;28;20958;-69
2023/02/27 00:24:11;;;;;;;2.73;1.40;;;-0.20;98.00;;;;;;5073161;28;20459;-68
2023/02/27 00:26:39;;;;;;;1.10;1.10;;;-0.20;98.00;;;;;;5074581;28;20472;-69
2023/02/27 00:29:07;;;;;;;1.50;1.33;;;-0.10;98.00;;;;;;5074536;28;20464;-69
2023/02/27 00:31:35;;;;;;;1.37;1.30;;;0.00;98.00;;;;;;5074273;28;20482;-69
2023/02/27 00:34:02;;;;;;;3.47;1.47;;;0.10;98.00;;;;;;5074363;28;20466;-69
2023/02/27 00:36:30;;;;;;;2.13;1.57;;;0.10;98.00;;;;;;5074201;28;20452;-69
2023/02/27 00:38:57;;;;;;;1.77;1.30;;;0.00;98.00;;;;;;5073257;28;20533;-68
2023/02/27 00:41:24;;;;;;;2.03;1.57;;;0.00;98.00;;;;;;5074295;28;20464;-68
2023/02/27 00:43:51;;;;;;;2.70;1.77;;;-0.10;98.00;;;;;;5074356;28;20495;-69
2023/02/27 00:46:20;;;;;;;1.20;1.20;;;-0.20;98.00;;;;;;5074349;28;20456;-69
2023/02/27 00:48:47;;;;;;;1.23;1.17;;;-0.10;98.00;;;;;;5074327;28;20790;-69
2023/02/27 00:51:14;;;;;;;1.40;1.30;;;-0.10;98.00;;;;;;5074525;28;20457;-69
2023/02/27 00:53:41;;;;;;;4.00;1.20;;;-0.10;98.00;;;;;;5074077;28;20459;-68
2023/02/27 00:56:08;;;;;;;1.40;1.23;;;-0.20;98.00;;;;;;5074094;28;21040;-69
2023/02/27 00:58:36;;;;;;;2.90;1.63;;;-0.20;98.00;;;;;;5073681;28;20449;-69
2023/02/27 01:01:03;;;;;;;1.40;1.30;;;-0.20;98.00;;;;;;5074142;28;20464;-68
2023/02/27 01:03:32;;;;;;;2.17;1.57;;;-0.20;98.00;;;;;;5072171;28;20556;-69
2023/02/27 01:05:59;;;;;;;1.43;1.43;;;-0.20;98.00;;;;;;5073772;28;20968;-69
2023/02/27 01:08:26;;;;;;;1.20;1.13;;;-0.20;98.00;;;;;;5073548;28;20516;-70
2023/02/27 01:10:55;;;;;;;5.63;1.73;;;-0.20;98.00;;;;;;5073819;28;20456;-69
2023/02/27 01:13:22;;;;;;;1.33;1.30;;;-0.10;98.00;;;;;;5073554;28;20468;-69
2023/02/27 01:15:49;;;;;;;1.20;1.20;;;-0.20;98.00;;;;;;5073541;28;20460;-70
2023/02/27 01:18:16;;;;;;;1.83;1.37;;;-0.20;98.00;;;;;;5073414;28;20467;-69
2023/02/27 01:20:45;;;;;;;1.67;1.30;;;-0.30;98.00;;;;;;5073526;28;20823;-69
2023/02/27 01:23:12;;;;;;;1.20;1.17;;;-0.30;98.00;;;;;;5072050;28;20504;-70
2023/02/27 01:25:47;;;;;;;1.20;1.20;;;-0.30;98.00;;;;;;5073280;28;20516;-70
2023/02/27 01:28:14;;;;;;;1.20;1.20;;;-0.30;98.00;;;;;;5073265;28;21007;-70
2023/02/27 01:30:43;;;;;;;1.40;1.30;;;-0.30;98.00;;;;;;5073295;28;20512;-69
2023/02/27 01:33:10;;;;;;;1.50;1.40;;;-0.30;98.00;;;;;;5072987;28;20457;-70
2023/02/27 01:35:37;;;;;;;1.20;1.13;;;-0.30;98.00;;;;;;5073283;28;20448;-69
2023/02/27 01:38:06;;;;;;;1.20;1.20;;;-0.30;98.00;;;;;;5073259;28;20448;-68
2023/02/27 01:40:36;;;;;;;1.77;1.40;;;-0.20;98.00;;;;;;5072869;28;20459;-69
2023/02/27 01:43:03;;;;;;;1.70;1.33;;;-0.30;98.00;;;;;;5073089;28;20545;-69
2023/02/27 01:45:34;;;;;;;1.20;1.10;;;-0.40;98.00;;;;;;5073202;28;20832;-69
2023/02/27 01:48:09;;;;;;;1.47;1.20;;;-0.40;98.00;;;;;;5073126;28;20457;-68
2023/02/27 01:50:39;;;;;;;1.50;1.10;;;-0.40;98.00;;;;;;5073063;28;20541;-68
2023/02/27 01:53:10;;;;;;;1.70;1.50;;;-0.50;98.00;;;;;;5072632;28;20439;-69
2023/02/27 01:55:39;;;;;;;1.67;1.40;;;-0.50;98.00;;;;;;5072969;28;20482;-68
2023/02/27 01:58:09;;;;;;;1.43;1.30;;;-0.50;98.00;;;;;;5072911;28;20455;-69
2023/02/27 02:00:38;;;;;;;1.63;1.47;;;-0.60;98.00;;;;;;5072707;28;20470;-69
2023/02/27 02:03:15;;;;;;;1.40;1.20;;;-0.50;98.00;;;;;;5072330;28;20975;-69
2023/02/27 02:05:45;;;;;;;1.90;1.57;;;-0.50;98.00;;;;;;5072098;28;20463;-70
2023/02/27 02:08:18;;;;;;;1.10;1.03;;;-0.60;98.00;;;;;;5072376;28;20466;-70
2023/02/27 02:13:13;;;;;;;1.90;1.63;;;-0.70;98.00;;;;;;5010746;28;20522;-68
2023/02/27 02:15:49;;;;;;;1.30;1.30;;;-0.70;98.00;;;;;;5012007;28;20456;-69
2023/02/27 02:18:24;;;;;;;1.50;1.30;;;-0.60;98.00;;;;;;5012193;28;20816;-68
2023/02/27 02:21:24;;;;;;;3.33;1.73;;;-0.60;98.00;;;;;;5011947;28;20460;-68
2023/02/27 02:24:27;;;;;;;1.63;1.53;;;-0.60;98.00;;;;;;5010121;28;20535;-68
2023/02/27 02:27:04;;;;;;;1.47;1.40;;;-0.50;98.00;;;;;;5011889;28;20464;-69
2023/02/27 02:30:12;;;;;;;2.30;1.53;;;-0.50;98.00;;;;;;5011683;28;20819;-69
2023/02/27 02:33:16;;;;;;;2.43;1.43;;;-0.50;98.00;;;;;;5011691;28;20462;-69
2023/02/27 02:36:21;;;;;;;1.20;1.20;;;-0.50;98.00;;;;;;5011225;28;20458;-68
2023/02/27 02:39:12;;;;;;;1.93;1.20;;;-0.60;98.00;;;;;;5011845;28;20619;-69
2023/02/27 02:41:56;;;;;;;1.67;1.30;;;-0.70;98.00;;;;;;5011464;28;20473;-68
2023/02/27 02:44:38;;;;;;;1.47;1.30;;;-0.70;98.00;;;;;;5011544;28;20494;-68
2023/02/27 02:47:15;;;;;;;1.57;1.30;;;-0.70;98.00;;;;;;5011860;28;20467;-69
2023/02/27 02:49:49;;;;;;;1.20;1.20;;;-0.60;98.00;;;;;;5010834;28;20827;-71
2023/02/27 02:52:26;;;;;;;2.53;1.83;;;-0.50;98.00;;;;;;5011571;28;20469;-69
2023/02/27 02:54:59;;;;;;;1.40;1.30;;;-0.50;98.00;;;;;;5011691;28;20464;-69
2023/02/27 02:57:37;;;;;;;1.47;1.20;;;-0.50;98.00;;;;;;5011337;28;20457;-68
2023/02/27 03:00:09;;;;;;;2.63;1.47;;;-0.60;98.00;;;;;;5011401;28;20469;-69
2023/02/27 03:02:41;;;;;;;1.40;1.30;;;-0.60;98.00;;;;;;5010990;28;20823;-68
2023/02/27 03:05:12;;;;;;;1.50;1.30;;;-0.60;98.00;;;;;;5011338;28;20460;-69
2023/02/27 03:07:44;;;;;;;1.37;1.20;;;-0.70;98.00;;;;;;5011210;28;20460;-70
2023/02/27 03:10:17;;;;;;;1.93;1.30;;;-0.70;98.00;;;;;;5010149;28;20884;-69
2023/02/27 03:12:49;;;;;;;1.50;1.40;;;-0.60;98.00;;;;;;5011222;28;20477;-69
2023/02/27 03:15:20;;;;;;;1.77;1.50;;;-0.70;98.00;;;;;;5011229;28;20466;-68
2023/02/27 03:17:52;;;;;;;2.23;1.30;;;-0.60;98.00;;;;;;5011182;28;20465;-69
2023/02/27 03:20:24;;;;;;;1.17;1.03;;;-0.70;98.00;;;;;;5011252;28;20457;-68
2023/02/27 03:22:56;;;;;;;1.87;1.30;;;-0.70;98.00;;;;;;5010970;28;20481;-69
2023/02/27 03:25:27;;;;;;;2.37;1.33;;;-0.80;98.00;;;;;;5011133;28;20512;-68
2023/02/27 03:28:02;;;;;;;1.30;1.10;;;-0.90;98.00;;;;;;5011278;28;20468;-68
2023/02/27 03:30:34;;;;;;;1.83;1.33;;;-0.70;98.00;;;;;;5009914;28;20464;-69
2023/02/27 03:33:08;;;;;;;1.97;1.30;;;-0.80;98.00;;;;;;5011120;28;20449;-69
2023/02/27 03:35:45;;;;;;;1.40;1.30;;;-0.70;98.00;;;;;;5009910;28;20462;-68
2023/02/27 03:38:19;;;;;;;3.00;1.70;;;-0.80;98.00;;;;;;5011242;28;20483;-70
2023/02/27 03:40:59;;;;;;;3.63;1.57;;;-0.90;98.00;;;;;;5010164;28;21086;-69
2023/02/27 03:43:31;;;;;;;1.40;1.10;;;-0.90;98.00;;;;;;5011040;28;21052;-68
2023/02/27 03:46:03;;;;;;;9.33;1.50;;;-1.00;98.00;;;;;;5011330;28;20828;-69
2023/02/27 03:48:32;;;;;;;1.20;1.10;;;-0.90;98.00;;;;;;5011209;28;20469;-69
2023/02/27 03:50:59;;;;;;;1.57;1.50;;;-0.90;98.00;;;;;;5011051;28;20458;-68
2023/02/27 03:53:36;;;;;;;1.53;1.33;;;-1.00;98.00;;;;;;5009694;28;20465;-69
2023/02/27 03:56:09;;;;;;;1.10;1.00;;;-1.00;98.00;;;;;;5010906;28;20469;-69
2023/02/27 03:58:36;;;;;;;1.80;1.60;;;-0.90;98.00;;;;;;5011216;28;20470;-68
2023/02/27 04:01:05;;;;;;;1.60;1.20;;;-0.90;98.00;;;;;;5011156;28;20507;-70
2023/02/27 04:03:37;;;;;;;1.53;1.43;;;-0.80;98.00;;;;;;5009505;28;20481;-69
2023/02/27 04:09:00;;;;;;;1.43;1.17;;;-0.70;98.00;;;;;;5011199;28;20972;-69
2023/02/27 04:11:52;;;;;;;1.67;1.37;;;-0.70;98.00;;;;;;5010134;28;20485;-68
2023/02/27 04:14:45;;;;;;;4.33;1.67;;;-0.70;98.00;;;;;;5013691;28;20453;-69
2023/02/27 04:17:24;;;;;;;1.57;1.53;;;-0.80;98.00;;;;;;5014235;28;20825;-68
2023/02/27 04:20:27;;;;;;;1.97;1.60;;;-0.80;98.00;;;;;;5014229;28;20456;-68
2023/02/27 04:22:59;;;;;;;1.30;1.10;;;-0.80;98.00;;;;;;5014100;28;20472;-68
2023/02/27 04:25:50;;;;;;;1.70;1.70;;;-0.80;98.00;;;;;;5014148;28;20469;-68
2023/02/27 04:28:22;;;;;;;2.03;1.20;;;-0.70;98.00;;;;;;5014100;28;20465;-68
2023/02/27 04:31:02;;;;;;;4.47;2.03;;;-0.80;98.00;;;;;;5013994;28;20467;-69
2023/02/27 04:33:41;;;;;;;1.30;1.20;;;-0.90;98.00;;;;;;5014067;28;20493;-69
2023/02/27 04:36:12;;;;;;;1.93;1.70;;;-0.90;98.00;;;;;;5014205;28;20242;-68
2023/02/27 04:38:45;;;;;;;1.40;1.10;;;-0.90;98.00;;;;;;5013852;28;20488;-68
2023/02/27 04:41:16;;;;;;;1.57;1.47;;;-0.90;98.00;;;;;;5013972;28;20465;-69
2023/02/27 04:43:47;;;;;;;1.53;1.33;;;-0.90;98.00;;;;;;5013998;28;20484;-69
2023/02/27 04:46:17;;;;;;;1.87;1.30;;;-0.90;98.00;;;;;;5013961;28;20943;-69
2023/02/27 04:48:50;;;;;;;2.47;1.83;;;-0.90;98.00;;;;;;5013902;28;20510;-69
2023/02/27 04:51:23;;;;;;;1.83;1.30;;;-0.90;98.00;;;;;;5013860;28;20465;-69
2023/02/27 04:53:55;;;;;;;3.53;1.83;;;-0.90;98.00;;;;;;5013751;28;20457;-69
2023/02/27 04:56:27;;;;;;;1.70;1.20;;;-0.90;98.00;;;;;;5013603;28;20556;-69
2023/02/27 04:58:59;;;;;;;4.90;2.10;;;-0.80;98.00;;;;;;5012344;28;20461;-69
2023/02/27 05:01:36;;;;;;;1.30;1.20;;;-0.80;98.00;;;;;;5013668;28;20968;-68
2023/02/27 05:04:05;;;;;;;1.50;1.20;;;-0.70;98.00;;;;;;5013318;28;20493;-68
2023/02/27 05:06:37;;;;;;;1.87;1.63;;;-0.70;98.00;;;;;;5013463;28;20479;-68
2023/02/27 05:09:12;;;;;;;2.07;1.60;;;-0.70;98.00;;;;;;5013170;28;20463;-69
2023/02/27 05:11:44;;;;;;;1.60;1.50;;;-0.80;98.00;;;;;;5013253;28;20886;-68
2023/02/27 05:14:17;;;;;;;1.40;1.30;;;-0.90;98.00;;;;;;5013153;28;21043;-69
2023/02/27 05:16:49;;;;;;;1.83;1.43;;;-0.80;98.00;;;;;;5013322;28;20520;-69
2023/02/27 05:19:17;;;;;;;1.50;1.30;;;-0.70;98.00;;;;;;5013278;28;20457;-68
2023/02/27 05:21:54;;;;;;;1.97;1.60;;;-0.80;98.00;;;;;;5013089;28;20464;-68
2023/02/27 05:24:31;;;;;;;1.50;1.30;;;-0.90;98.00;;;;;;5012414;28;20493;-68
2023/02/27 05:27:16;;;;;;;2.13;1.43;;;-0.90;98.00;;;;;;5012070;28;20465;-69
2023/02/27 05:29:48;;;;;;;1.30;1.10;;;-0.90;98.00;;;;;;5011317;28;20480;-69
2023/02/27 05:32:26;;;;;;;2.60;1.83;;;-0.90;98.00;;;;;;5012774;28;20958;-69
2023/02/27 05:35:01;;;;;;;3.20;1.90;;;-1.00;98.00;;;;;;5013074;28;20519;-68
2023/02/27 05:37:33;;;;;;;1.47;1.37;;;-1.10;98.00;;;;;;5011547;28;20456;-68
2023/02/27 05:40:07;;;;;;;3.17;1.27;;;-1.10;98.00;;;;;;5013014;28;20456;-69
2023/02/27 05:42:40;;;;;;;3.43;1.70;;;-1.10;98.00;;;;;;5012639;28;20241;-69
2023/02/27 05:45:14;;;;;;;1.33;1.27;;;-1.10;98.00;;;;;;5012790;28;20489;-68
2023/02/27 05:47:45;;;;;;;1.50;1.50;;;-1.10;98.00;;;;;;5012781;28;20532;-70
2023/02/27 05:50:16;;;;;;;1.50;1.40;;;-1.10;98.00;;;;;;5012639;28;20464;-69
2023/02/27 05:52:44;;;;;;;4.50;2.40;;;-1.30;98.00;;;;;;5012526;28;20725;-68
2023/02/27 05:55:17;;;;;;;1.47;1.10;;;-1.30;98.00;;;;;;5012382;28;20497;-69
2023/02/27 05:57:49;;;;;;;2.37;1.97;;;-1.20;98.00;;;;;;5012452;28;20461;-68
2023/02/27 06:00:21;;;;;;;3.03;1.40;;;-1.20;98.00;;;;;;5012311;28;20464;-70
2023/02/27 06:02:49;;;;;;;1.70;1.67;;;-1.10;98.00;;;;;;5012156;28;20523;-69
2023/02/27 06:05:19;;;;;;;2.70;1.87;;;-1.00;98.00;;;;;;5012150;28;20511;-68
2023/02/27 06:07:47;;;;;;;1.63;1.37;;;-0.90;98.00;;;;;;5012216;28;20462;-69
2023/02/27 06:10:18;;;;;;;2.23;1.57;;;-1.00;98.00;;;;;;5012429;28;20453;-67
2023/02/27 06:12:45;;;;;;;2.23;1.47;;;-0.90;98.00;;;;;;5012029;28;20465;-69
2023/02/27 06:15:13;;;;;;;1.30;1.20;;;-0.90;98.00;;;;;;5011962;28;20998;-69
2023/02/27 06:17:41;;;;;;;2.00;1.30;;;-1.00;98.00;;;;;;5011974;28;20563;-69
2023/02/27 06:20:10;;;;;;;2.80;1.73;;;-1.00;98.00;;;;;;5011848;28;20462;-69
2023/02/27 06:22:37;;;;;;;1.60;1.40;;;-1.00;98.00;;;;;;5011986;28;20867;-69
2023/02/27 06:25:05;;;;;;;2.63;1.83;;;-1.10;98.00;;;;;;5012020;28;20483;-68
2023/02/27 06:27:36;;;;;;;1.77;1.70;;;-1.10;98.00;;;;;;5011777;28;20456;-68
2023/02/27 06:30:06;;;;;;;1.10;1.10;;;-0.90;98.00;;;;;;5010782;28;20455;-69
2023/02/27 06:32:36;;;;;;;1.40;1.30;;;-1.00;98.00;;;;;;5012176;28;20873;-68
2023/02/27 06:35:06;;;;;;;1.90;1.40;;;-1.10;98.00;;;;;;5011679;28;20955;-69
2023/02/27 06:37:33;;;;;;;2.03;1.57;;;-1.10;98.00;;;;;;5011533;28;20465;-68
2023/02/27 06:40:00;;;;;;;1.60;1.30;;;-1.20;98.00;;;;;;5014943;28;20456;-69
2023/02/27 06:42:27;;;;;;;2.07;1.50;;;-1.20;98.00;;;;;;5031645;28;20462;-68
2023/02/27 06:44:54;;;;;;;1.67;1.50;;;-1.20;98.00;;;;;;5031529;28;20488;-69
2023/02/27 06:47:21;;;;;;;2.50;1.48;;;-1.30;98.00;;;;;;5030135;28;20456;-70
2023/02/27 06:49:49;;;;;;;3.40;2.13;;;-1.30;98.00;;;;;;5031492;28;20210;-70
2023/02/27 06:52:17;;;;;;;1.57;1.40;;;-1.20;98.00;;;;;;5031229;28;20562;-69
2023/02/27 06:54:44;;;;;;;3.53;1.60;;;-1.10;98.00;;;;;;5031379;28;20459;-69
2023/02/27 06:57:11;;;;;;;1.73;1.63;;;-0.90;98.00;;;;;;5031150;28;20875;-69
2023/02/27 06:59:38;;;;;;;2.20;1.47;;;-0.80;98.00;;;;;;5031299;28;20460;-70
2023/02/27 07:02:05;;;;;;;4.43;2.50;;;-0.80;98.00;;;;;;5031234;28;20452;-64
2023/02/27 07:04:33;;;;;;;1.30;1.20;;;-0.90;98.00;;;;;;5031151;28;20553;-65
2023/02/27 07:07:00;;;;;;;2.93;1.70;;;-0.90;98.00;;;;;;5031176;28;20802;-65
2023/02/27 07:09:28;;;;;;;2.60;1.37;;;-0.80;98.00;;;;;;5031074;28;20510;-64
2023/02/27 07:11:56;;;;;;;3.13;2.00;;;-0.90;98.00;;;;;;5031044;28;20456;-66
2023/02/27 07:14:24;;;;;;;2.27;1.40;;;-0.90;98.00;;;;;;5031045;28;20470;-65
2023/02/27 07:16:53;;;;;;;1.77;1.73;;;-1.00;98.00;;;;;;5031019;28;20498;-66
2023/02/27 07:19:21;;;;;;;2.07;1.73;;;-1.00;98.00;;;;;;5031027;28;20517;-64
2023/02/27 07:21:54;;;;;;;2.13;1.30;;;-1.00;98.00;;;;;;5031183;28;20487;-66
2023/02/27 07:24:21;;;;;;;3.13;2.00;;;-0.90;98.00;;;;;;5031032;28;20488;-65
2023/02/27 07:26:55;;;;;;;2.90;1.50;;;-0.90;98.00;;;;;;5030213;28;20945;-65
2023/02/27 07:29:23;;;;;;;2.23;1.90;;;-0.90;98.00;;;;;;5031035;28;20522;-65
2023/02/27 07:31:50;;;;;;;3.33;1.77;;;-0.80;98.00;;;;;;5029768;28;20505;-65
2023/02/27 07:34:17;;;;;;;2.63;1.97;;;-0.80;98.00;;;;;;5030785;28;20457;-67
2023/02/27 07:36:45;;;;;;;1.20;1.20;;;-0.70;98.00;;;;;;5029948;28;20467;-65
2023/02/27 07:39:12;;;;;;;2.73;1.63;;;-0.60;98.00;;;;;;5031082;28;20461;-66
2023/02/27 07:41:40;;;;;;;3.70;1.30;;;-0.60;98.00;;;;;;5031161;28;20514;-65
2023/02/27 07:44:09;;;;;;;1.80;1.70;;;-0.50;98.00;;;;;;5030709;28;20461;-67
2023/02/27 07:46:37;;;;;;;1.80;1.50;;;-0.50;98.00;;;;;;5030985;28;20591;-64
2023/02/27 07:49:04;;;;;;;2.90;2.40;;;-0.40;98.00;;;;;;5034695;28;20455;-64
2023/02/27 07:51:32;;;;;;;2.13;1.33;;;-0.40;98.00;;;;;;5034650;28;20483;-65
2023/02/27 07:53:59;;;;;;;2.60;1.63;;;-0.30;98.00;;;;;;5033535;28;20756;-64
2023/02/27 07:56:26;;;;;;;1.98;1.67;;;-0.30;98.00;;;;;;5033343;28;20456;-65
2023/02/27 07:58:53;;;;;;;2.80;1.80;;;-0.30;98.00;;;;;;5033455;28;20229;-65
2023/02/27 08:01:22;;;;;;;1.27;1.23;;;-0.20;98.00;;;;;;5033707;28;20464;-65
2023/02/27 08:03:49;;;;;;;2.07;1.60;;;-0.20;98.00;;;;;;5024935;28;20454;-66
2023/02/27 08:06:16;;;;;;;1.30;1.20;;;-0.20;98.00;;;;;;5033975;28;20487;-64
2023/02/27 08:08:44;;;;;;;2.07;1.90;;;-0.10;98.00;;;;;;5034257;28;20469;-65
2023/02/27 08:11:11;;;;;;;3.23;1.63;;;-0.10;98.00;;;;;;5033876;28;20971;-64
2023/02/27 08:13:39;;;;;;;1.50;1.37;;;-0.10;98.00;;;;;;5034154;28;20457;-65
2023/02/27 08:16:07;;;;;;;1.53;1.43;;;0.10;98.00;;;;;;5022598;28;20472;-65
2023/02/27 08:18:36;;;;;;;1.37;1.33;;;0.20;98.00;;;;;;5014053;28;20511;-62
2023/02/27 08:21:04;;;;;;;1.43;1.43;;;0.30;98.00;;;;;;5013302;28;20474;-63
2023/02/27 08:23:33;;;;;;;1.30;1.23;;;0.40;98.00;;;;;;5014196;28;20493;-62
2023/02/27 08:26:00;;;;;;;1.67;1.30;;;0.60;98.00;;;;;;5014448;28;20523;-64
2023/02/27 08:28:27;;;;;;;1.50;1.40;;;0.70;98.00;;;;;;5013048;28;20461;-63
2023/02/27 08:30:55;;;;;;;1.50;1.40;;;0.70;98.00;;;;;;5014310;28;20955;-63
2023/02/27 08:33:22;;;;;;;1.97;1.40;;;0.80;98.00;;;;;;5014289;28;20590;-64
2023/02/27 08:35:54;;;;;;;2.33;1.67;;;0.90;98.00;;;;;;5014433;28;20455;-63
2023/02/27 08:38:21;;;;;;;1.80;1.27;;;1.00;98.00;;;;;;5014367;28;20612;-63
2023/02/27 08:40:52;;;;;;;3.00;1.87;;;1.10;98.00;;;;;;5014186;28;20466;-64
2023/02/27 08:43:19;;;;;;;1.63;1.40;;;1.20;98.00;;;;;;5013885;28;21229;-63
2023/02/27 08:45:46;;;;;;;1.20;1.03;;;1.30;98.00;;;;;;5025683;28;20903;-63
2023/02/27 08:48:15;;;;;;;2.97;2.33;;;1.40;98.00;;;;;;5033385;28;20461;-63
2023/02/27 08:50:43;;;;;;;1.90;1.47;;;1.50;98.00;;;;;;5033764;28;20469;-63
2023/02/27 08:53:14;;;;;;;2.40;1.70;;;1.60;98.00;;;;;;5024123;28;20462;-64
2023/02/27 08:55:42;;;;;;;2.07;1.93;;;1.70;98.00;;;;;;5012662;28;20459;-64
2023/02/27 08:58:10;;;;;;;2.27;1.83;;;1.70;98.00;;;;;;5014150;28;20458;-64
2023/02/27 09:00:37;;;;;;;1.73;1.50;;;1.80;98.00;;;;;;5013705;28;20459;-65
2023/02/27 09:03:05;;;;;;;1.67;1.20;;;2.40;98.00;;;;;;5014601;28;20455;-64
2023/02/27 09:05:34;;;;;;;3.40;1.97;;;2.90;98.00;;;;;;5013619;28;20855;-64
2023/02/27 09:08:01;;;;;;;3.10;1.60;;;3.00;98.00;;;;;;5012606;28;20470;-64
2023/02/27 09:10:29;;;;;;;1.20;1.10;;;2.90;98.00;;;;;;5013602;28;20463;-64
2023/02/27 09:12:56;;;;;;;2.80;1.70;;;2.70;98.00;;;;;;5013144;28;20467;-64
2023/02/27 09:15:24;;;;;;;1.20;1.20;;;2.70;98.00;;;;;;5012874;28;20458;-64
2023/02/27 09:17:51;;;;;;;1.60;1.30;;;2.70;98.00;;;;;;5013076;28;21000;-64
2023/02/27 09:20:18;;;;;;;2.23;1.30;;;2.70;98.00;;;;;;5013327;28;20505;-64
2023/02/27 09:22:45;;;;;;;2.50;1.40;;;2.80;98.00;;;;;;5013053;28;20478;-63
2023/02/27 09:25:12;;;;;;;2.27;1.60;;;2.90;98.00;;;;;;5012760;28;20483;-64
2023/02/27 09:27:40;;;;;;;2.63;1.80;;;2.90;98.00;;;;;;5013313;28;20467;-64
2023/02/27 09:30:09;;;;;;;1.40;1.30;;;2.90;98.00;;;;;;5031017;28;20453;-64
2023/02/27 09:32:36;;;;;;;1.50;1.30;;;3.00;98.00;;;;;;5032640;28;20533;-64
2023/02/27 09:35:04;;;;;;;2.50;1.40;;;3.20;98.00;;;;;;5032841;28;20968;-63
2023/02/27 09:37:31;;;;;;;2.30;1.87;;;3.40;98.00;;;;;;5032392;28;20949;-63
2023/02/27 09:39:58;;;;;;;1.27;1.20;;;3.50;98.00;;;;;;5032042;28;20816;-64
2023/02/27 09:42:30;;;;;;;1.97;1.50;;;3.50;98.00;;;;;;5030841;28;20455;-64
2023/02/27 09:45:02;;;;;;;1.30;1.20;;;3.60;98.00;;;;;;5031794;28;20482;-64
2023/02/27 09:47:36;;;;;;;4.40;1.43;;;3.60;98.00;;;;;;5031765;28;20462;-64
2023/02/27 09:50:06;;;;;;;1.20;1.20;;;3.60;98.00;;;;;;5032173;28;20541;-63
2023/02/27 09:52:37;;;;;;;1.47;1.33;;;3.80;98.00;;;;;;5032520;28;20450;-64
2023/02/27 09:55:06;;;;;;;2.20;1.37;;;3.90;98.00;;;;;;5031022;28;20466;-64
2023/02/27 09:57:47;;;;;;;1.60;1.60;;;4.00;97.70;;;;;;5031579;28;20468;-63
2023/02/27 10:00:29;;;;;;;1.60;1.23;;;4.10;96.90;;;;;;5032032;28;20462;-64
2023/02/27 10:03:03;;;;;;;1.30;1.10;;;4.20;96.50;;;;;;5031333;28;20512;-63
2023/02/27 10:05:39;;;;;;;1.50;1.37;;;4.40;95.90;;;;;;5032038;28;20487;-64
2023/02/27 10:08:13;;;;;;;1.40;1.37;;;4.60;95.70;;;;;;5031896;28;20467;-64
2023/02/27 10:10:53;;;;;;;1.33;1.30;;;4.70;94.60;;;;;;5031203;28;20459;-64
2023/02/27 10:13:44;;;;;;;1.50;1.40;;;4.90;94.80;;;;;;5031750;28;21027;-64
2023/02/27 10:16:14;;;;;;;1.60;1.20;;;5.20;94.20;;;;;;5031565;28;20563;-64
2023/02/27 10:18:50;;;;;;;2.10;1.57;;;5.50;92.90;;;;;;5031332;28;20459;-64
2023/02/27 10:21:22;;;;;;;1.30;1.20;;;5.50;93.20;;;;;;5031520;28;20465;-65
2023/02/27 10:23:55;;;;;;;1.50;1.23;;;5.50;92.70;;;;;;5031745;28;20472;-64
2023/02/27 10:26:26;;;;;;;2.53;1.57;;;5.60;92.30;;;;;;5031625;28;20496;-64
2023/02/27 10:28:53;;;;;;;2.43;1.70;;;6.00;92.90;;;;;;5031920;28;20884;-64
2023/02/27 10:31:29;;;;;;;1.70;1.40;;;6.20;92.00;;;;;;5032341;28;20459;-64
2023/02/27 10:33:57;;;;;;;1.30;1.30;;;6.00;90.90;;;;;;5032528;28;20460;-64
2023/02/27 10:36:24;;;;;;;1.50;1.50;;;5.90;91.90;;;;;;5032633;28;20462;-64
2023/02/27 10:38:56;;;;;;;1.60;1.30;;;5.70;91.40;;;;;;5032602;28;20464;-64
2023/02/27 10:41:23;;;;;;;1.40;1.30;;;5.40;91.20;;;;;;5032168;28;20458;-64
2023/02/27 10:43:54;;;;;;;3.40;1.53;;;5.10;91.00;;;;;;5032339;28;20819;-64
2023/02/27 10:46:27;;;;;;;3.73;1.50;;;5.10;91.40;;;;;;5032032;28;20495;-64
2023/02/27 10:48:54;;;;;;;1.70;1.30;;;5.20;91.70;;;;;;5032070;28;20453;-64
2023/02/27 10:51:24;;;;;;;1.93;1.40;;;5.20;91.60;;;;;;5032023;28;20494;-64
2023/02/27 10:54:13;;;;;;;1.27;1.17;;;5.50;91.60;;;;;;5031976;28;20450;-64
2023/02/27 10:56:45;;;;;;;1.30;1.23;;;5.70;91.30;;;;;;5032128;28;20966;-64
2023/02/27 10:59:20;;;;;;;1.53;1.40;;;5.80;90.00;;;;;;5032050;28;20460;-64
2023/02/27 11:01:51;;;;;;;3.50;1.67;;;5.60;89.70;;;;;;5032296;28;20464;-64
2023/02/27 11:04:26;;;;;;;2.00;1.33;;;5.20;89.80;;;;;;5031970;28;20551;-64
2023/02/27 11:06:54;;;;;;;1.93;1.40;;;5.00;91.00;;;;;;5032056;28;20487;-64
2023/02/27 11:09:24;;;;;;;3.13;1.60;;;4.90;90.80;;;;;;5031948;28;20451;-64
2023/02/27 11:11:54;;;;;;;1.80;1.30;;;5.30;91.90;;;;;;5031862;28;20533;-64
2023/02/27 11:14:30;;;;;;;1.20;1.10;;;5.10;90.70;;;;;;5030653;28;20851;-64
2023/02/27 11:16:59;;;;;;;2.27;1.60;;;5.30;90.90;;;;;;5032153;28;20460;-64
2023/02/27 11:19:32;;;;;;;2.43;1.40;;;5.40;90.70;;;;;;5031778;28;20523;-64
2023/02/27 11:22:01;;;;;;;1.90;1.60;;;5.80;89.70;;;;;;5031922;28;20467;-65
2023/02/27 11:24:29;;;;;;;1.40;1.30;;;6.30;88.50;;;;;;5030977;28;20451;-64
2023/02/27 11:27:02;;;;;;;7.53;1.87;;;6.80;87.60;;;;;;5036028;28;20573;-65
2023/02/27 11:29:34;;;;;;;2.00;1.60;;;7.10;85.50;;;;;;5034034;28;20468;-64
2023/02/27 11:32:10;;;;;;;1.40;1.33;;;6.70;85.70;;;;;;5223350;22;20512;-64
2023/02/27 11:34:40;;;;;;;2.60;1.63;;;6.30;86.50;;;;;;5015297;28;20467;-64
2023/02/27 11:37:21;;;;;;;2.77;1.63;;;6.00;88.00;;;;;;5014195;28;20853;-65
2023/02/27 11:39:50;;;;;;;1.90;1.50;;;6.50;87.10;;;;;;5015121;28;20995;-64
2023/02/27 11:42:26;;;;;;;1.50;1.30;;;7.00;86.10;;;;;;5015099;28;20474;-65
2023/02/27 11:45:00;;;;;;;2.33;1.30;;;6.80;85.10;;;;;;5014931;28;20482;-64
2023/02/27 11:47:31;;;;;;;1.80;1.50;;;6.40;85.70;;;;;;5014814;28;20494;-64
2023/02/27 11:50:40;;;;;;;2.70;1.50;;;5.90;86.50;;;;;;5014940;28;20470;-64
2023/02/27 11:53:34;;;;;;;1.70;1.43;;;5.50;88.00;;;;;;5014846;28;20466;-64
2023/02/27 11:56:04;;;;;;;2.90;1.40;;;6.30;88.30;;;;;;5014671;28;20947;-64
2023/02/27 11:58:41;;;;;;;1.73;1.33;;;7.00;86.90;;;;;;5014748;28;20833;-64
2023/02/27 12:01:18;;;;;;;1.70;1.50;;;7.70;86.00;;;;;;5014988;28;20449;-65
2023/02/27 12:06:17;;;;;;;2.90;1.80;;;9.00;84.40;;;;;;5052975;28;20486;-65
2023/02/27 12:08:55;;;;;;;2.37;1.57;;;9.50;84.10;;;;;;5054527;28;20457;-64
2023/02/27 12:11:28;;;;;;;5.03;2.20;;;9.80;82.50;;;;;;5054729;28;20540;-64
2023/02/27 12:14:00;;;;;;;6.33;1.90;;;9.90;82.30;;;;;;5054546;28;21005;-65
2023/02/27 12:16:34;;;;;;;1.80;1.60;;;10.10;81.30;;;;;;5054114;28;20452;-65
2023/02/27 12:19:11;;;;;;;2.73;1.60;;;10.30;80.90;;;;;;5054156;28;20461;-65
2023/02/27 12:21:42;;;;;;;2.67;1.67;;;10.60;79.70;;;;;;5054229;28;20463;-64
2023/02/27 12:24:16;;;;;;;2.33;1.63;;;10.40;79.30;;;;;;5053894;28;20789;-63
2023/02/27 12:26:45;;;;;;;2.00;1.73;;;10.60;79.90;;;;;;5053793;28;20487;-67
2023/02/27 12:29:22;;;;;;;2.30;1.70;;;10.40;77.40;;;;;;5054076;28;20522;-66
2023/02/27 12:32:00;;;;;;;2.80;1.83;;;10.60;76.40;;;;;;5054123;28;20962;-68
2023/02/27 12:34:37;;;;;;;3.37;1.60;;;10.50;76.30;;;;;;5053095;28;20951;-64
2023/02/27 12:37:11;;;;;;;3.87;1.70;;;9.80;77.20;;;;;;5053873;28;20995;-62
2023/02/27 12:39:40;;;;;;;3.20;2.00;;;9.10;78.60;;;;;;5053712;28;20462;-64
2023/02/27 12:42:35;;;;;;;2.03;1.70;;;8.30;80.20;;;;;;5053748;28;20457;-64
2023/02/27 12:45:36;;;;;;;3.70;2.03;;;7.70;81.80;;;;;;5053745;28;20833;-65
2023/02/27 12:48:16;;;;;;;3.40;1.40;;;7.60;84.00;;;;;;5050875;28;20471;-65
2023/02/27 12:50:51;;;;;;;2.17;1.33;;;7.90;81.80;;;;;;5052255;28;20465;-65
2023/02/27 12:53:34;;;;;;;3.13;1.90;;;7.80;82.30;;;;;;5053277;28;20462;-64
2023/02/27 12:56:06;;;;;;;1.90;1.50;;;7.50;83.30;;;;;;5054591;28;20522;-65
2023/02/27 13:01:17;;;;;;;2.47;1.50;;;8.50;83.40;;;;;;5280032;22;20505;-65
2023/02/27 13:03:50;;;;;;;2.73;1.83;;;9.10;80.50;;;;;;5074019;28;20458;-69
2023/02/27 13:06:26;;;;;;;2.70;1.97;;;9.10;81.20;;;;;;5073680;28;20492;-65
2023/02/27 13:09:20;;;;;;;3.47;2.00;;;9.00;80.40;;;;;;5072016;28;20455;-66
2023/02/27 13:11:57;;;;;;;3.57;1.93;;;8.90;79.60;;;;;;5069828;28;20598;-65
2023/02/27 13:14:38;;;;;;;2.30;1.50;;;8.70;81.10;;;;;;5071848;28;20519;-65
2023/02/27 13:17:13;;;;;;;1.80;1.30;;;8.40;81.00;;;;;;5073474;28;20458;-65
2023/02/27 13:19:47;;;;;;;3.00;1.90;;;7.90;85.30;;;;;;5072087;28;20457;-64
2023/02/27 13:22:20;;;;;;;2.80;1.77;;;7.90;82.30;;;;;;5073119;28;20454;-64
2023/02/27 13:24:50;;;;;;;2.77;1.50;;;8.60;82.90;;;;;;5073039;28;20458;-64
2023/02/27 13:27:23;;;;;;;1.97;1.70;;;9.30;82.20;;;;;;5072867;28;20489;-65